SND1 NZQN-NZNR
Flight info
| Callsign | SND1 |
|---|---|
| Flight time | 1h 18m |
| Altitude | 39000 |
| Route | TIMJO DCT RY DCT DOPKI Y153 CH H221 WAIMA DCT WN DCT PM DCT OPAPA |
| Aircraft | A319/M-SDFGHIJ3RWXYZ/LB1 |
Departure
| Time | 2026-04-28 02:18 |
|---|---|
| Airport | Queenstown Airport (NZQN) |
Arrival
| Time | 2026-04-28 03:36 |
|---|---|
| Airport | Hawke's Bay Airport (NZNR) |
| Time | Latitude | Longitude | Altitude | Speed | Heading |
|---|---|---|---|---|---|
| 2026-04-28 01:51 | -45.02276 | 168.74149 | 1164 ft | 0 kts | 251° |
| 2026-04-28 02:07 | -45.02271 | 168.74167 | 1164 ft | 4 kts | 254° |
| 2026-04-28 02:07 | -45.02266 | 168.74205 | 1164 ft | 4 kts | 274° |
| 2026-04-28 02:08 | -45.02275 | 168.74234 | 1164 ft | 2 kts | 339° |
| 2026-04-28 02:08 | -45.02277 | 168.74235 | 1164 ft | 0 kts | 341° |
| 2026-04-28 02:10 | -45.02268 | 168.74231 | 1164 ft | 5 kts | 341° |
| 2026-04-28 02:11 | -45.02225 | 168.74211 | 1163 ft | 8 kts | 341° |
| 2026-04-28 02:11 | -45.02171 | 168.74184 | 1164 ft | 9 kts | 341° |
| 2026-04-28 02:11 | -45.02129 | 168.74164 | 1164 ft | 0 kts | 341° |
| 2026-04-28 02:12 | -45.02119 | 168.74158 | 1163 ft | 4 kts | 335° |
| 2026-04-28 02:12 | -45.02114 | 168.74156 | 1164 ft | 0 kts | 340° |
| 2026-04-28 02:13 | -45.02113 | 168.74145 | 1162 ft | 5 kts | 278° |
| 2026-04-28 02:13 | -45.02099 | 168.74092 | 1163 ft | 7 kts | 294° |
| 2026-04-28 02:13 | -45.02058 | 168.74056 | 1164 ft | 7 kts | 360° |
| 2026-04-28 02:14 | -45.02003 | 168.74082 | 1163 ft | 9 kts | 24° |
| 2026-04-28 02:14 | -45.01952 | 168.74111 | 1165 ft | 8 kts | 20° |
| 2026-04-28 02:14 | -45.01914 | 168.74151 | 1166 ft | 8 kts | 64° |
| 2026-04-28 02:14 | -45.01901 | 168.74224 | 1168 ft | 8 kts | 76° |
| 2026-04-28 02:15 | -45.01861 | 168.74464 | 1168 ft | 23 kts | 77° |
| 2026-04-28 02:15 | -45.01822 | 168.74706 | 1168 ft | 26 kts | 77° |
| 2026-04-28 02:15 | -45.01780 | 168.74964 | 1167 ft | 27 kts | 77° |
| 2026-04-28 02:16 | -45.01738 | 168.75231 | 1167 ft | 29 kts | 77° |
| 2026-04-28 02:16 | -45.01693 | 168.75515 | 1169 ft | 29 kts | 77° |
| 2026-04-28 02:16 | -45.01650 | 168.75760 | 1168 ft | 18 kts | 58° |
| 2026-04-28 02:16 | -45.01653 | 168.75805 | 1167 ft | 1 kts | 216° |
| 2026-04-28 02:17 | -45.01651 | 168.75799 | 1168 ft | 2 kts | 262° |
| 2026-04-28 02:17 | -45.01659 | 168.75746 | 1168 ft | 10 kts | 258° |
| 2026-04-28 02:17 | -45.01738 | 168.75247 | 1167 ft | 105 kts | 257° |
| 2026-04-28 02:17 | -45.01949 | 168.73869 | 1369 ft | 169 kts | 257° |
| 2026-04-28 02:18 | -45.02223 | 168.72155 | 2163 ft | 189 kts | 253° |
| 2026-04-28 02:18 | -45.02947 | 168.70554 | 3183 ft | 196 kts | 220° |
| 2026-04-28 02:18 | -45.04180 | 168.69817 | 4287 ft | 194 kts | 187° |
| 2026-04-28 02:18 | -45.05508 | 168.70207 | 5199 ft | 203 kts | 152° |
| 2026-04-28 02:19 | -45.06364 | 168.71767 | 5948 ft | 213 kts | 104° |
| 2026-04-28 02:19 | -45.06338 | 168.73192 | 6367 ft | 220 kts | 70° |
| 2026-04-28 02:19 | -45.05593 | 168.74543 | 6844 ft | 222 kts | 30° |
| 2026-04-28 02:19 | -45.04054 | 168.74904 | 7327 ft | 232 kts | 342° |
| 2026-04-28 02:20 | -45.02844 | 168.73330 | 7781 ft | 245 kts | 284° |
| 2026-04-28 02:20 | -45.02980 | 168.71025 | 8752 ft | 233 kts | 251° |
| 2026-04-28 02:20 | -45.03793 | 168.69052 | 9749 ft | 234 kts | 236° |
| 2026-04-28 02:20 | -45.04740 | 168.67222 | 10885 ft | 234 kts | 240° |
| 2026-04-28 02:21 | -45.05475 | 168.65124 | 12006 ft | 232 kts | 246° |
| 2026-04-28 02:21 | -45.06042 | 168.62958 | 12654 ft | 253 kts | 261° |
| 2026-04-28 02:21 | -45.06084 | 168.60716 | 13040 ft | 277 kts | 279° |
| 2026-04-28 02:21 | -45.05187 | 168.58164 | 13461 ft | 310 kts | 309° |
| 2026-04-28 02:22 | -45.03242 | 168.56436 | 14047 ft | 337 kts | 340° |
| 2026-04-28 02:22 | -45.00870 | 168.56265 | 14846 ft | 355 kts | 8° |
| 2026-04-28 02:22 | -44.98643 | 168.57627 | 15677 ft | 367 kts | 35° |
| 2026-04-28 02:22 | -44.96876 | 168.60358 | 16559 ft | 375 kts | 56° |
| 2026-04-28 02:23 | -44.95627 | 168.63643 | 17433 ft | 378 kts | 65° |
| 2026-04-28 02:23 | -44.94586 | 168.67003 | 18276 ft | 381 kts | 67° |
| 2026-04-28 02:23 | -44.93471 | 168.70479 | 19113 ft | 385 kts | 64° |
| 2026-04-28 02:23 | -44.92376 | 168.73477 | 19794 ft | 390 kts | 61° |
| 2026-04-28 02:24 | -44.91036 | 168.76714 | 20527 ft | 394 kts | 58° |
| 2026-04-28 02:24 | -44.89550 | 168.79982 | 21246 ft | 399 kts | 56° |
| 2026-04-28 02:24 | -44.87998 | 168.83221 | 21938 ft | 404 kts | 56° |
| 2026-04-28 02:24 | -44.86473 | 168.86351 | 22599 ft | 408 kts | 56° |
| 2026-04-28 02:25 | -44.84938 | 168.89513 | 23233 ft | 412 kts | 56° |
| 2026-04-28 02:25 | -44.83339 | 168.92852 | 23869 ft | 417 kts | 56° |
| 2026-04-28 02:25 | -44.81726 | 168.96272 | 24493 ft | 421 kts | 57° |
| 2026-04-28 02:25 | -44.80115 | 168.99725 | 25083 ft | 425 kts | 57° |
| 2026-04-28 02:26 | -44.78487 | 169.03221 | 25685 ft | 429 kts | 58° |
| 2026-04-28 02:26 | -44.76839 | 169.06751 | 26245 ft | 433 kts | 58° |
| 2026-04-28 02:26 | -44.75153 | 169.10349 | 26801 ft | 437 kts | 58° |
| 2026-04-28 02:26 | -44.73475 | 169.13924 | 27336 ft | 440 kts | 58° |
| 2026-04-28 02:27 | -44.71881 | 169.17313 | 27815 ft | 443 kts | 58° |
| 2026-04-28 02:27 | -44.70194 | 169.20888 | 28307 ft | 447 kts | 58° |
| 2026-04-28 02:27 | -44.68420 | 169.24640 | 28823 ft | 451 kts | 58° |
| 2026-04-28 02:27 | -44.66674 | 169.28327 | 29310 ft | 454 kts | 58° |
| 2026-04-28 02:28 | -44.64921 | 169.32027 | 29793 ft | 457 kts | 58° |
| 2026-04-28 02:28 | -44.63151 | 169.35764 | 30256 ft | 460 kts | 59° |
| 2026-04-28 02:28 | -44.61400 | 169.39459 | 30690 ft | 463 kts | 58° |
| 2026-04-28 02:28 | -44.59553 | 169.43347 | 31130 ft | 467 kts | 58° |
| 2026-04-28 02:29 | -44.57744 | 169.47140 | 31567 ft | 470 kts | 58° |
| 2026-04-28 02:29 | -44.55942 | 169.50908 | 31970 ft | 473 kts | 58° |
| 2026-04-28 02:29 | -44.54108 | 169.54740 | 32408 ft | 474 kts | 58° |
| 2026-04-28 02:29 | -44.52279 | 169.58562 | 33004 ft | 472 kts | 58° |
| 2026-04-28 02:30 | -44.50435 | 169.62422 | 33585 ft | 470 kts | 58° |
| 2026-04-28 02:30 | -44.48626 | 169.66209 | 34142 ft | 468 kts | 58° |
| 2026-04-28 02:30 | -44.46789 | 169.70051 | 34688 ft | 467 kts | 58° |
| 2026-04-28 02:30 | -44.44933 | 169.73782 | 35179 ft | 467 kts | 56° |
| 2026-04-28 02:31 | -44.42972 | 169.77398 | 35648 ft | 467 kts | 53° |
| 2026-04-28 02:31 | -44.40931 | 169.80925 | 36098 ft | 466 kts | 52° |
| 2026-04-28 02:31 | -44.38850 | 169.84410 | 36527 ft | 466 kts | 51° |
| 2026-04-28 02:31 | -44.36766 | 169.87889 | 36934 ft | 466 kts | 51° |
| 2026-04-28 02:32 | -44.35059 | 169.90762 | 37257 ft | 466 kts | 52° |
| 2026-04-28 02:32 | -44.33003 | 169.94266 | 37637 ft | 465 kts | 52° |
| 2026-04-28 02:32 | -44.30979 | 169.97771 | 38013 ft | 465 kts | 52° |
| 2026-04-28 02:32 | -44.28956 | 170.01307 | 38383 ft | 465 kts | 52° |
| 2026-04-28 02:33 | -44.26948 | 170.04825 | 38726 ft | 465 kts | 52° |
| 2026-04-28 02:33 | -44.24948 | 170.08319 | 39062 ft | 464 kts | 52° |
| 2026-04-28 02:33 | -44.23565 | 170.10725 | 39190 ft | 465 kts | 52° |
| 2026-04-28 02:34 | -44.19503 | 170.17751 | 39236 ft | 465 kts | 52° |
| 2026-04-28 02:34 | -44.14794 | 170.25848 | 39235 ft | 464 kts | 52° |
| 2026-04-28 02:35 | -44.11369 | 170.31740 | 39237 ft | 464 kts | 52° |
| 2026-04-28 02:35 | -44.07359 | 170.38758 | 39236 ft | 463 kts | 53° |
| 2026-04-28 02:36 | -44.03350 | 170.45826 | 39230 ft | 462 kts | 53° |
| 2026-04-28 02:36 | -43.99877 | 170.51898 | 39234 ft | 462 kts | 52° |
| 2026-04-28 02:37 | -43.95855 | 170.58872 | 39234 ft | 462 kts | 52° |
| 2026-04-28 02:37 | -43.91962 | 170.65596 | 39234 ft | 462 kts | 52° |
| 2026-04-28 02:38 | -43.87937 | 170.72555 | 39235 ft | 462 kts | 52° |
| 2026-04-28 02:38 | -43.83926 | 170.79478 | 39228 ft | 461 kts | 51° |
| 2026-04-28 02:39 | -43.79874 | 170.86442 | 39225 ft | 461 kts | 51° |
| 2026-04-28 02:39 | -43.75847 | 170.93370 | 39224 ft | 462 kts | 51° |
| 2026-04-28 02:40 | -43.71816 | 171.00288 | 39226 ft | 462 kts | 51° |
| 2026-04-28 02:40 | -43.67776 | 171.07195 | 39227 ft | 463 kts | 51° |
| 2026-04-28 02:41 | -43.63724 | 171.14098 | 39226 ft | 463 kts | 51° |
| 2026-04-28 02:41 | -43.59654 | 171.21007 | 39231 ft | 464 kts | 51° |
| 2026-04-28 02:42 | -43.55579 | 171.27911 | 39232 ft | 464 kts | 51° |
| 2026-04-28 02:42 | -43.51507 | 171.34798 | 39234 ft | 464 kts | 51° |
| 2026-04-28 02:43 | -43.47429 | 171.41689 | 39231 ft | 464 kts | 51° |
| 2026-04-28 02:43 | -43.43358 | 171.48572 | 39230 ft | 464 kts | 51° |
| 2026-04-28 02:44 | -43.39276 | 171.55440 | 39229 ft | 464 kts | 50° |
| 2026-04-28 02:44 | -43.35174 | 171.62290 | 39230 ft | 464 kts | 50° |
| 2026-04-28 02:45 | -43.31046 | 171.69185 | 39231 ft | 464 kts | 50° |
| 2026-04-28 02:45 | -43.26954 | 171.76040 | 39229 ft | 464 kts | 50° |
| 2026-04-28 02:46 | -43.22854 | 171.82878 | 39221 ft | 464 kts | 50° |
| 2026-04-28 02:46 | -43.18740 | 171.89706 | 39215 ft | 464 kts | 50° |
| 2026-04-28 02:47 | -43.14622 | 171.96505 | 39208 ft | 464 kts | 50° |
| 2026-04-28 02:47 | -43.10498 | 172.03320 | 39202 ft | 464 kts | 49° |
| 2026-04-28 02:48 | -43.06378 | 172.10129 | 39190 ft | 465 kts | 49° |
| 2026-04-28 02:48 | -43.02239 | 172.16948 | 39194 ft | 466 kts | 49° |
| 2026-04-28 02:49 | -42.98086 | 172.23760 | 39184 ft | 467 kts | 49° |
| 2026-04-28 02:49 | -42.93935 | 172.30555 | 39195 ft | 467 kts | 49° |
| 2026-04-28 02:50 | -42.89773 | 172.37358 | 39192 ft | 467 kts | 49° |
| 2026-04-28 02:50 | -42.86286 | 172.43056 | 39195 ft | 467 kts | 49° |
| 2026-04-28 02:51 | -42.83068 | 172.48625 | 39206 ft | 466 kts | 50° |
| 2026-04-28 02:52 | -42.78853 | 172.55393 | 39191 ft | 466 kts | 47° |
| 2026-04-28 02:52 | -42.74588 | 172.62053 | 39189 ft | 467 kts | 47° |
| 2026-04-28 02:53 | -42.70377 | 172.68771 | 39202 ft | 468 kts | 48° |
| 2026-04-28 02:53 | -42.66197 | 172.75550 | 39200 ft | 468 kts | 49° |
| 2026-04-28 02:54 | -42.62008 | 172.82339 | 39197 ft | 468 kts | 48° |
| 2026-04-28 02:54 | -42.57810 | 172.89089 | 39197 ft | 469 kts | 48° |
| 2026-04-28 02:55 | -42.53590 | 172.95841 | 39200 ft | 469 kts | 48° |
| 2026-04-28 02:55 | -42.49372 | 173.02579 | 39201 ft | 469 kts | 48° |
| 2026-04-28 02:56 | -42.45139 | 173.09320 | 39202 ft | 470 kts | 47° |
| 2026-04-28 02:56 | -42.40903 | 173.16064 | 39206 ft | 470 kts | 48° |
| 2026-04-28 02:57 | -42.36666 | 173.22808 | 39208 ft | 471 kts | 47° |
| 2026-04-28 02:57 | -42.32418 | 173.29540 | 39214 ft | 471 kts | 47° |
| 2026-04-28 02:58 | -42.28155 | 173.36260 | 39220 ft | 471 kts | 47° |
| 2026-04-28 02:58 | -42.23885 | 173.42983 | 39221 ft | 472 kts | 47° |
| 2026-04-28 02:59 | -42.19588 | 173.49755 | 39221 ft | 472 kts | 47° |
| 2026-04-28 02:59 | -42.15310 | 173.56479 | 39223 ft | 473 kts | 47° |
| 2026-04-28 03:00 | -42.11014 | 173.63195 | 39228 ft | 473 kts | 47° |
| 2026-04-28 03:00 | -42.06713 | 173.69916 | 39231 ft | 474 kts | 47° |
| 2026-04-28 03:01 | -42.02408 | 173.76622 | 39236 ft | 474 kts | 47° |
| 2026-04-28 03:01 | -41.98104 | 173.83325 | 39237 ft | 474 kts | 46° |
| 2026-04-28 03:02 | -41.93778 | 173.90029 | 39242 ft | 475 kts | 46° |
| 2026-04-28 03:02 | -41.90040 | 173.95817 | 39245 ft | 475 kts | 46° |
| 2026-04-28 03:03 | -41.85832 | 174.02302 | 39250 ft | 475 kts | 46° |
| 2026-04-28 03:03 | -41.81505 | 174.08999 | 39255 ft | 475 kts | 46° |
| 2026-04-28 03:04 | -41.77162 | 174.15685 | 39260 ft | 475 kts | 46° |
| 2026-04-28 03:04 | -41.72789 | 174.22392 | 39271 ft | 475 kts | 46° |
| 2026-04-28 03:05 | -41.68520 | 174.28936 | 39270 ft | 475 kts | 46° |
| 2026-04-28 03:05 | -41.64855 | 174.34539 | 39277 ft | 475 kts | 47° |
| 2026-04-28 03:06 | -41.60517 | 174.41154 | 39297 ft | 472 kts | 47° |
| 2026-04-28 03:06 | -41.56194 | 174.47733 | 39300 ft | 470 kts | 47° |
| 2026-04-28 03:07 | -41.51874 | 174.54295 | 39298 ft | 469 kts | 47° |
| 2026-04-28 03:07 | -41.47575 | 174.60811 | 39299 ft | 469 kts | 47° |
| 2026-04-28 03:08 | -41.43231 | 174.67375 | 39292 ft | 468 kts | 47° |
| 2026-04-28 03:08 | -41.38912 | 174.73881 | 39289 ft | 468 kts | 47° |
| 2026-04-28 03:09 | -41.34550 | 174.80283 | 39286 ft | 467 kts | 41° |
| 2026-04-28 03:09 | -41.29319 | 174.85312 | 39282 ft | 462 kts | 28° |
| 2026-04-28 03:10 | -41.23841 | 174.89780 | 39285 ft | 462 kts | 28° |
| 2026-04-28 03:10 | -41.18785 | 174.93923 | 39278 ft | 463 kts | 28° |
| 2026-04-28 03:11 | -41.13307 | 174.98412 | 39285 ft | 463 kts | 28° |
| 2026-04-28 03:11 | -41.07824 | 175.02887 | 39284 ft | 463 kts | 28° |
| 2026-04-28 03:12 | -41.02343 | 175.07349 | 39286 ft | 463 kts | 28° |
| 2026-04-28 03:12 | -40.96853 | 175.11804 | 39283 ft | 463 kts | 28° |
| 2026-04-28 03:13 | -40.91362 | 175.16247 | 39282 ft | 463 kts | 28° |
| 2026-04-28 03:13 | -40.85872 | 175.20699 | 39288 ft | 463 kts | 28° |
| 2026-04-28 03:14 | -40.80374 | 175.25140 | 39292 ft | 463 kts | 28° |
| 2026-04-28 03:14 | -40.74877 | 175.29569 | 39298 ft | 463 kts | 28° |
| 2026-04-28 03:15 | -40.69351 | 175.34003 | 39300 ft | 462 kts | 27° |
| 2026-04-28 03:15 | -40.63859 | 175.38409 | 38885 ft | 463 kts | 27° |
| 2026-04-28 03:15 | -40.61074 | 175.40635 | 37342 ft | 474 kts | 27° |
| 2026-04-28 03:16 | -40.58227 | 175.42903 | 35894 ft | 481 kts | 27° |
| 2026-04-28 03:16 | -40.55358 | 175.45189 | 34531 ft | 483 kts | 27° |
| 2026-04-28 03:16 | -40.52528 | 175.47457 | 33483 ft | 476 kts | 27° |
| 2026-04-28 03:16 | -40.49707 | 175.49722 | 32466 ft | 468 kts | 27° |
| 2026-04-28 03:17 | -40.46953 | 175.51928 | 31450 ft | 460 kts | 27° |
| 2026-04-28 03:17 | -40.41608 | 175.56197 | 29428 ft | 445 kts | 28° |
| 2026-04-28 03:17 | -40.38912 | 175.58341 | 28661 ft | 433 kts | 28° |
| 2026-04-28 03:18 | -40.36666 | 175.60125 | 28194 ft | 418 kts | 28° |
| 2026-04-28 03:18 | -40.34255 | 175.62108 | 27669 ft | 406 kts | 33° |
| 2026-04-28 03:18 | -40.32114 | 175.64482 | 27174 ft | 396 kts | 43° |
| 2026-04-28 03:18 | -40.30332 | 175.67239 | 26707 ft | 385 kts | 53° |
| 2026-04-28 03:19 | -40.28886 | 175.70151 | 26253 ft | 379 kts | 56° |
| 2026-04-28 03:19 | -40.27475 | 175.73029 | 25795 ft | 377 kts | 56° |
| 2026-04-28 03:19 | -40.26050 | 175.75921 | 25330 ft | 375 kts | 56° |
| 2026-04-28 03:19 | -40.24595 | 175.78859 | 24844 ft | 375 kts | 56° |
| 2026-04-28 03:20 | -40.23121 | 175.81834 | 24341 ft | 372 kts | 56° |
| 2026-04-28 03:20 | -40.21693 | 175.84710 | 23833 ft | 371 kts | 56° |
| 2026-04-28 03:20 | -40.20742 | 175.86625 | 23495 ft | 370 kts | 56° |
| 2026-04-28 03:20 | -40.19272 | 175.89591 | 22973 ft | 369 kts | 57° |
| 2026-04-28 03:21 | -40.17825 | 175.92503 | 22455 ft | 368 kts | 56° |
| 2026-04-28 03:21 | -40.16389 | 175.95388 | 21944 ft | 367 kts | 56° |
| 2026-04-28 03:21 | -40.14956 | 175.98265 | 21426 ft | 366 kts | 57° |
| 2026-04-28 03:21 | -40.13537 | 176.01125 | 20925 ft | 365 kts | 57° |
| 2026-04-28 03:22 | -40.12163 | 176.03889 | 20431 ft | 364 kts | 57° |
| 2026-04-28 03:22 | -40.10716 | 176.06791 | 19917 ft | 363 kts | 57° |
| 2026-04-28 03:22 | -40.09284 | 176.09659 | 19409 ft | 362 kts | 57° |
| 2026-04-28 03:22 | -40.07912 | 176.12405 | 18926 ft | 361 kts | 57° |
| 2026-04-28 03:23 | -40.06541 | 176.15146 | 18441 ft | 360 kts | 57° |
| 2026-04-28 03:23 | -40.05176 | 176.17875 | 17963 ft | 359 kts | 57° |
| 2026-04-28 03:23 | -40.03817 | 176.20596 | 17488 ft | 357 kts | 57° |
| 2026-04-28 03:23 | -40.02458 | 176.23311 | 17019 ft | 356 kts | 57° |
| 2026-04-28 03:24 | -40.01102 | 176.26012 | 16550 ft | 355 kts | 57° |
| 2026-04-28 03:24 | -39.99755 | 176.28690 | 16086 ft | 353 kts | 57° |
| 2026-04-28 03:24 | -39.98408 | 176.31366 | 15623 ft | 352 kts | 57° |
| 2026-04-28 03:24 | -39.97070 | 176.34024 | 15163 ft | 350 kts | 57° |
| 2026-04-28 03:25 | -39.95724 | 176.36699 | 14696 ft | 348 kts | 57° |
| 2026-04-28 03:25 | -39.94375 | 176.39378 | 13980 ft | 353 kts | 57° |
| 2026-04-28 03:25 | -39.93032 | 176.42047 | 13472 ft | 350 kts | 57° |
| 2026-04-28 03:25 | -39.91709 | 176.44671 | 12992 ft | 340 kts | 57° |
| 2026-04-28 03:26 | -39.90438 | 176.47191 | 12544 ft | 326 kts | 57° |
| 2026-04-28 03:26 | -39.89202 | 176.49638 | 12103 ft | 315 kts | 57° |
| 2026-04-28 03:26 | -39.87981 | 176.52054 | 11645 ft | 315 kts | 57° |
| 2026-04-28 03:26 | -39.87188 | 176.53621 | 11345 ft | 314 kts | 57° |
| 2026-04-28 03:27 | -39.85986 | 176.55989 | 10898 ft | 312 kts | 57° |
| 2026-04-28 03:27 | -39.84792 | 176.58340 | 10444 ft | 311 kts | 57° |
| 2026-04-28 03:27 | -39.83614 | 176.60660 | 10162 ft | 301 kts | 57° |
| 2026-04-28 03:27 | -39.82093 | 176.63657 | 9906 ft | 295 kts | 57° |
| 2026-04-28 03:28 | -39.81311 | 176.65113 | 9445 ft | 298 kts | 50° |
| 2026-04-28 03:28 | -39.79778 | 176.66874 | 8775 ft | 293 kts | 37° |
| 2026-04-28 03:28 | -39.78161 | 176.68471 | 8076 ft | 289 kts | 37° |
| 2026-04-28 03:28 | -39.76547 | 176.70056 | 7357 ft | 286 kts | 37° |
| 2026-04-28 03:29 | -39.74968 | 176.71599 | 6656 ft | 282 kts | 37° |
| 2026-04-28 03:29 | -39.73427 | 176.73102 | 5951 ft | 279 kts | 37° |
| 2026-04-28 03:29 | -39.71864 | 176.74628 | 5231 ft | 276 kts | 37° |
| 2026-04-28 03:29 | -39.70340 | 176.76115 | 4507 ft | 272 kts | 37° |
| 2026-04-28 03:30 | -39.68834 | 176.77583 | 3784 ft | 269 kts | 36° |
| 2026-04-28 03:30 | -39.67368 | 176.79012 | 3355 ft | 255 kts | 36° |
| 2026-04-28 03:30 | -39.66007 | 176.80339 | 3197 ft | 233 kts | 36° |
| 2026-04-28 03:30 | -39.64765 | 176.81551 | 3097 ft | 214 kts | 36° |
| 2026-04-28 03:31 | -39.63622 | 176.82665 | 3011 ft | 196 kts | 36° |
| 2026-04-28 03:31 | -39.62584 | 176.83677 | 2922 ft | 180 kts | 36° |
| 2026-04-28 03:31 | -39.61606 | 176.84622 | 2833 ft | 169 kts | 34° |
| 2026-04-28 03:31 | -39.60575 | 176.85200 | 2735 ft | 158 kts | 11° |
| 2026-04-28 03:32 | -39.59466 | 176.85346 | 2488 ft | 157 kts | 3° |
| 2026-04-28 03:32 | -39.58396 | 176.85462 | 2262 ft | 149 kts | 4° |
| 2026-04-28 03:32 | -39.57428 | 176.85568 | 2053 ft | 132 kts | 5° |
| 2026-04-28 03:32 | -39.56552 | 176.85664 | 1870 ft | 122 kts | 5° |
| 2026-04-28 03:33 | -39.55720 | 176.85755 | 1700 ft | 118 kts | 5° |
| 2026-04-28 03:33 | -39.54908 | 176.85843 | 1531 ft | 117 kts | 5° |
| 2026-04-28 03:33 | -39.54134 | 176.85926 | 1374 ft | 116 kts | 6° |
| 2026-04-28 03:33 | -39.53320 | 176.86017 | 1204 ft | 115 kts | 6° |
| 2026-04-28 03:34 | -39.52534 | 176.86104 | 1040 ft | 115 kts | 7° |
| 2026-04-28 03:34 | -39.51732 | 176.86189 | 875 ft | 114 kts | 6° |
| 2026-04-28 03:34 | -39.50946 | 176.86274 | 717 ft | 115 kts | 6° |
| 2026-04-28 03:34 | -39.50146 | 176.86362 | 557 ft | 114 kts | 6° |
| 2026-04-28 03:35 | -39.49340 | 176.86449 | 380 ft | 114 kts | 7° |
| 2026-04-28 03:35 | -39.48547 | 176.86537 | 212 ft | 114 kts | 9° |
| 2026-04-28 03:35 | -39.47757 | 176.86625 | 48 ft | 114 kts | 8° |
| 2026-04-28 03:35 | -39.47054 | 176.86715 | 18 ft | 73 kts | 6° |
| 2026-04-28 03:36 | -39.46689 | 176.86750 | 16 ft | 21 kts | 6° |
| 2026-04-28 03:36 | -39.46663 | 176.86807 | 16 ft | 9 kts | 89° |
| 2026-04-28 03:36 | -39.46666 | 176.86896 | 16 ft | 11 kts | 93° |
| 2026-04-28 03:36 | -39.46672 | 176.86996 | 16 ft | 6 kts | 95° |
| 2026-04-28 03:37 | -39.46675 | 176.87029 | 16 ft | 1 kts | 95° |
| 2026-04-28 03:37 | -39.46675 | 176.87031 | 16 ft | 2 kts | 95° |
| 2026-04-28 03:37 | -39.46697 | 176.87062 | 16 ft | 6 kts | 154° |
| 2026-04-28 03:37 | -39.46738 | 176.87079 | 16 ft | 4 kts | 139° |
| 2026-04-28 03:38 | -39.46755 | 176.87086 | 16 ft | 2 kts | 178° |
| 2026-04-28 03:38 | -39.46763 | 176.87082 | 17 ft | 0 kts | 198° |